Corn Creek, Nevada
Current Conditions -  °F | °C
As of 8:56 AM on Sunday 23 Nov 2014 (Local Time) from KHND Reporting Station
Clear Clear  
Wind Chill: 55°   Ceiling: Unl
Heat Index: 55°   Visibility: 10mi
Dew Point: 19°   Wind: 13mph
Humidity: 25%   Direction: 20°NNE
Pressure: 30.29"   Gusts: NA
Location:  35.8437°N, 115.134°W
Report Text: KHND 231656Z 02011KT 10SM CLR 13/M07 A3029 RMK AO2 T01271072 SLP255
Loading
Personal Weather Stations






























Interactive Weather Map New forecast layout! Learn more

10-Day Weather Forecast

Advertisements
Track Severe Weather on mobile